createdAt,value
2022-09-15T00:00:08.735Z,75881.28
2022-09-15T00:02:35.387Z,75895.19
2022-09-15T00:05:02.256Z,75891.22
2022-09-15T00:07:28.807Z,75895.19
2022-09-15T00:09:55.264Z,75883.25
2022-09-15T00:12:21.888Z,75901.16
2022-09-15T00:14:48.573Z,75887.22
2022-09-15T00:17:15.169Z,75899.16
2022-09-15T00:19:41.650Z,75887.22
2022-09-15T00:22:08.161Z,75883.25
2022-09-15T00:24:35.949Z,75883.25
2022-09-15T00:27:02.517Z,75899.16
2022-09-15T00:29:29.127Z,75907.09
2022-09-15T00:31:55.570Z,75905.13
2022-09-15T00:34:22.241Z,75911.06
2022-09-15T00:36:48.760Z,75915.06
2022-09-15T00:39:15.256Z,75911.06
2022-09-15T00:41:41.879Z,75932.94
2022-09-15T00:44:23.655Z,75930.94
2022-09-15T00:47:15.272Z,75925.00
2022-09-15T00:49:41.092Z,75936.91
2022-09-15T00:52:13.915Z,75940.88
2022-09-15T00:55:05.281Z,75950.81
2022-09-15T00:57:39.240Z,75950.81
2022-09-15T01:00:11.228Z,75960.75
2022-09-15T01:02:39.110Z,75956.78
2022-09-15T01:05:10.575Z,75964.72
2022-09-15T01:07:56.566Z,75954.78
2022-09-15T01:10:26.002Z,75966.72
2022-09-15T01:12:57.108Z,75964.72
2022-09-15T01:15:44.573Z,75984.59
2022-09-15T01:18:22.481Z,75972.66
2022-09-15T01:21:04.263Z,75986.56
2022-09-15T01:23:54.091Z,75986.56
2022-09-15T01:26:42.459Z,76006.44
2022-09-15T01:29:41.370Z,76008.44
2022-09-15T01:32:35.018Z,76008.44
2022-09-15T01:35:33.473Z,76030.28
2022-09-15T01:38:05.951Z,76022.34
2022-09-15T01:40:39.103Z,76026.31
2022-09-15T01:43:11.004Z,76028.31
2022-09-15T01:45:41.162Z,76046.19
2022-09-15T01:48:09.877Z,76048.16
2022-09-15T01:50:43.570Z,76048.16
2022-09-15T01:53:16.062Z,76046.19
2022-09-15T01:55:54.669Z,76058.09
2022-09-15T01:58:22.007Z,76046.19
2022-09-15T02:00:56.029Z,76054.13
2022-09-15T02:03:35.121Z,76056.13
2022-09-15T02:06:08.940Z,76052.16
2022-09-15T02:08:52.442Z,76052.16
2022-09-15T02:11:26.567Z,76052.16
2022-09-15T02:14:22.284Z,76052.16
2022-09-15T02:16:52.398Z,76062.06
2022-09-15T02:19:31.202Z,76064.06
2022-09-15T02:22:07.684Z,76070.03
2022-09-15T02:24:42.385Z,76077.97
2022-09-15T02:27:24.096Z,76068.03
2022-09-15T02:29:53.863Z,76048.16
2022-09-15T02:32:23.665Z,76040.22
2022-09-15T02:34:53.343Z,76054.13
2022-09-15T02:37:21.877Z,76068.03
2022-09-15T02:39:55.010Z,76060.09
2022-09-15T02:42:30.136Z,76077.97
2022-09-15T02:44:57.123Z,76077.97
2022-09-15T02:47:25.115Z,76077.97
2022-09-15T02:49:51.864Z,76087.91
2022-09-15T02:52:18.303Z,76087.91
2022-09-15T02:54:44.821Z,76081.94
2022-09-15T02:57:11.912Z,76091.88
2022-09-15T02:59:56.917Z,76076.00
2022-09-15T03:02:24.919Z,76083.94
2022-09-15T03:04:51.556Z,76076.00
2022-09-15T03:07:18.717Z,76081.94
2022-09-15T03:09:45.604Z,76089.91
2022-09-15T03:12:12.240Z,76074.00
2022-09-15T03:14:38.681Z,76087.91
2022-09-15T03:17:05.152Z,76077.97
2022-09-15T03:19:31.992Z,76085.91
2022-09-15T03:21:58.511Z,76074.00
2022-09-15T03:24:25.136Z,76074.00
2022-09-15T03:26:51.728Z,76074.00
2022-09-15T03:29:18.157Z,76085.91
2022-09-15T03:31:44.669Z,76083.94
2022-09-15T03:34:11.167Z,76072.00
2022-09-15T03:36:38.279Z,76087.91
2022-09-15T03:39:04.780Z,76062.06
2022-09-15T03:41:31.234Z,76072.00
2022-09-15T03:43:57.997Z,76062.06
2022-09-15T03:46:24.480Z,76072.00
2022-09-15T03:48:50.975Z,76076.00
2022-09-15T03:51:17.448Z,76081.94
2022-09-15T03:53:44.151Z,76079.97
2022-09-15T03:56:11.980Z,76077.97
2022-09-15T03:58:38.591Z,76089.91
2022-09-15T04:01:05.392Z,76077.97
2022-09-15T04:03:32.571Z,76083.94
2022-09-15T04:05:59.108Z,76101.81
2022-09-15T04:08:25.618Z,76109.75
2022-09-15T04:10:53.025Z,76107.78
2022-09-15T04:13:19.496Z,76119.69
2022-09-15T04:15:45.924Z,76117.72
2022-09-15T04:18:12.421Z,76115.72
2022-09-15T04:20:39.909Z,76121.69
2022-09-15T04:23:06.466Z,76117.72
2022-09-15T04:25:32.971Z,76119.69
2022-09-15T04:27:59.459Z,76123.66
2022-09-15T04:30:25.979Z,76131.63
2022-09-15T04:32:53.628Z,76125.66
2022-09-15T04:35:21.986Z,76135.59
2022-09-15T04:37:48.742Z,76131.63
2022-09-15T04:40:15.565Z,76149.50
2022-09-15T04:42:42.087Z,76151.50
2022-09-15T04:45:09.075Z,76143.53
2022-09-15T04:47:35.599Z,76147.50
2022-09-15T04:50:02.110Z,76147.50
2022-09-15T04:52:28.589Z,76147.50
2022-09-15T04:54:55.080Z,76139.56
2022-09-15T04:57:21.539Z,76153.47
2022-09-15T04:59:47.976Z,76155.47
2022-09-15T05:02:14.500Z,76157.44
2022-09-15T05:04:41.152Z,76161.44
2022-09-15T05:07:07.575Z,76163.41
2022-09-15T05:09:34.316Z,76161.44
2022-09-15T05:12:00.974Z,76175.34
2022-09-15T05:14:27.491Z,76163.41
2022-09-15T05:16:53.982Z,76159.44
2022-09-15T05:19:21.076Z,76157.44
2022-09-15T05:21:47.521Z,76159.44
2022-09-15T05:24:14.032Z,76155.47
2022-09-15T05:26:41.756Z,76151.50
2022-09-15T05:29:08.311Z,76145.53
2022-09-15T05:31:35.138Z,76145.53
2022-09-15T05:34:04.490Z,76151.50
2022-09-15T05:36:32.106Z,76133.59
2022-09-15T05:38:58.773Z,76139.56
2022-09-15T05:41:30.434Z,76129.63
2022-09-15T05:43:58.299Z,76123.66
2022-09-15T05:46:26.700Z,76131.63
2022-09-15T05:48:55.671Z,76125.66
2022-09-15T05:51:22.962Z,76125.66
2022-09-15T05:53:49.537Z,76111.75
2022-09-15T05:56:17.235Z,76107.78
2022-09-15T05:58:47.907Z,76093.88
2022-09-15T06:01:20.265Z,76077.97
2022-09-15T06:03:47.628Z,76064.06
2022-09-15T06:06:14.249Z,76058.09
2022-09-15T06:08:48.264Z,76030.28
2022-09-15T06:11:20.630Z,76002.47
2022-09-15T06:13:47.512Z,75982.59
2022-09-15T06:16:19.615Z,75964.72
2022-09-15T06:18:48.115Z,75956.78
2022-09-15T06:21:17.264Z,75952.81
2022-09-15T06:23:48.595Z,75946.84
2022-09-15T06:26:19.145Z,75938.91
2022-09-15T06:28:57.564Z,75928.97
2022-09-15T06:31:26.154Z,75923.00
2022-09-15T06:33:55.407Z,75915.06
2022-09-15T06:36:24.399Z,75899.16
2022-09-15T06:38:51.792Z,75897.16
2022-09-15T06:41:18.604Z,75891.22
2022-09-15T06:43:46.693Z,75889.22
2022-09-15T06:46:21.501Z,75891.22
2022-09-15T06:48:48.807Z,75889.22
2022-09-15T06:51:17.258Z,75883.25
2022-09-15T06:53:44.199Z,75891.22
2022-09-15T06:56:19.300Z,75895.19
2022-09-15T06:58:51.909Z,75885.25
2022-09-15T07:01:28.073Z,75891.22
2022-09-15T07:03:57.639Z,75889.22
2022-09-15T07:06:24.928Z,75881.28
2022-09-15T07:08:51.517Z,75867.38
2022-09-15T07:11:18.426Z,75843.53
2022-09-15T07:13:45.452Z,75843.53
2022-09-15T07:16:13.145Z,75841.53
2022-09-15T07:18:43.259Z,75823.66
2022-09-15T07:21:49.957Z,75821.69
2022-09-15T07:24:26.464Z,75801.81
2022-09-15T07:27:20.312Z,75783.94
2022-09-15T07:33:51.366Z,75756.13
2022-09-15T07:36:20.395Z,75750.16
2022-09-15T07:38:49.607Z,75770.03
2022-09-15T07:45:16.651Z,75775.97
2022-09-15T07:47:50.962Z,75787.91
2022-09-15T07:51:03.574Z,75760.09
2022-09-15T07:57:19.801Z,75720.34
2022-09-15T07:59:46.333Z,75692.53
2022-09-15T08:02:17.323Z,75654.78
2022-09-15T08:04:44.450Z,75646.84
2022-09-15T08:07:11.560Z,75628.97
2022-09-15T08:09:39.341Z,75617.03
2022-09-15T08:12:07.456Z,75623.00
2022-09-15T08:14:34.684Z,75625.00
2022-09-15T08:17:03.012Z,75646.84
2022-09-15T08:19:33.303Z,75642.88
2022-09-15T08:21:59.929Z,75640.88
2022-09-15T08:24:26.832Z,75658.75
2022-09-15T08:26:53.447Z,75630.94
2022-09-15T08:29:20.100Z,75611.09
2022-09-15T08:31:46.935Z,75599.16
2022-09-15T08:34:15.362Z,75577.31
2022-09-15T08:36:42.367Z,75577.31
2022-09-15T08:39:09.472Z,75573.34
2022-09-15T08:41:40.197Z,75555.47
2022-09-15T08:44:21.982Z,75579.31
2022-09-15T08:46:56.581Z,75557.44
2022-09-15T08:50:00.080Z,75545.53
2022-09-15T08:52:33.382Z,75517.72
2022-09-15T08:55:05.921Z,75539.56
2022-09-15T08:57:32.569Z,75541.56
2022-09-15T08:59:59.679Z,75525.66
2022-09-15T09:03:05.512Z,75537.59
2022-09-15T09:05:43.510Z,75553.47
2022-09-15T09:08:33.022Z,75561.41
2022-09-15T09:11:37.317Z,75541.56
2022-09-15T09:14:13.366Z,75525.66
2022-09-15T09:17:16.426Z,75533.59
2022-09-15T09:20:32.060Z,75541.56
2022-09-15T09:23:02.275Z,75561.41
2022-09-15T09:25:28.814Z,75573.34
2022-09-15T09:27:58.443Z,75591.22
2022-09-15T09:30:29.666Z,75597.19
2022-09-15T09:33:47.977Z,75605.13
2022-09-15T09:38:58.645Z,75597.19
2022-09-15T09:41:35.659Z,75569.38
2022-09-15T09:44:11.593Z,75555.47
2022-09-15T09:46:38.741Z,75513.75
2022-09-15T09:52:59.828Z,75476.00
2022-09-15T09:55:28.011Z,75493.88
2022-09-15T09:58:10.755Z,75476.00
2022-09-15T10:00:40.383Z,75476.00
2022-09-15T10:03:30.579Z,75440.25
2022-09-15T10:06:18.924Z,75390.56
2022-09-15T10:08:57.903Z,75366.75
2022-09-15T10:11:59.027Z,75364.75
2022-09-15T10:14:35.292Z,75352.84
2022-09-15T10:17:08.428Z,75329.00
2022-09-15T10:19:44.938Z,75372.69
2022-09-15T10:22:21.241Z,75327.00
2022-09-15T10:24:47.695Z,75325.03
2022-09-15T10:27:27.847Z,75346.88
2022-09-15T10:29:55.395Z,75350.84
2022-09-15T10:32:27.815Z,75346.88
2022-09-15T10:35:20.903Z,75354.81
2022-09-15T10:38:11.926Z,75360.78
2022-09-15T10:40:53.527Z,75358.78
2022-09-15T10:43:26.047Z,75352.84
2022-09-15T10:46:00.516Z,75370.72
2022-09-15T10:48:48.321Z,75362.75
2022-09-15T10:51:34.050Z,75350.84
2022-09-15T10:54:21.467Z,75382.63
2022-09-15T10:56:52.236Z,75426.34
2022-09-15T10:59:25.820Z,75436.28
2022-09-15T11:02:12.642Z,75440.25
2022-09-15T11:04:59.118Z,75420.38
2022-09-15T11:07:44.897Z,75424.34
2022-09-15T11:10:18.503Z,75450.16
2022-09-15T11:13:06.156Z,75476.00
2022-09-15T11:16:14.014Z,75525.66
2022-09-15T11:18:50.267Z,75525.66
2022-09-15T11:21:24.822Z,75497.84
2022-09-15T11:23:55.967Z,75454.16
2022-09-15T11:26:33.362Z,75446.19
2022-09-15T11:29:07.365Z,75404.47
2022-09-15T11:31:40.342Z,75396.53
2022-09-15T11:34:11.659Z,75398.53
2022-09-15T11:36:46.481Z,75386.59
2022-09-15T11:39:19.473Z,75390.56
2022-09-15T11:41:56.353Z,75356.81
2022-09-15T11:44:35.321Z,75340.91
2022-09-15T11:47:04.842Z,75364.75
2022-09-15T11:49:55.995Z,75384.63
2022-09-15T11:53:00.269Z,75374.69
2022-09-15T11:55:42.107Z,75404.47
2022-09-15T11:58:28.710Z,75406.47
2022-09-15T12:00:59.439Z,75410.44
2022-09-15T12:03:37.892Z,75400.50
2022-09-15T12:06:20.655Z,75392.56
2022-09-15T12:08:52.919Z,75356.81
2022-09-15T12:11:26.467Z,75317.06
2022-09-15T12:13:54.692Z,75309.13
2022-09-15T12:16:22.112Z,75285.28
2022-09-15T12:18:54.847Z,75263.44
2022-09-15T12:21:50.869Z,75269.41
2022-09-15T12:24:19.853Z,75259.47
2022-09-15T12:26:47.601Z,75259.47
2022-09-15T12:29:26.324Z,75255.50
2022-09-15T12:32:19.674Z,75307.16
2022-09-15T12:35:25.315Z,75329.00
2022-09-15T12:37:59.995Z,75344.88
2022-09-15T12:40:40.341Z,75348.88
2022-09-15T12:43:13.424Z,75321.06
2022-09-15T12:45:43.480Z,75295.22
2022-09-15T12:48:22.490Z,75259.47
2022-09-15T12:50:55.894Z,75291.25
2022-09-15T12:53:38.117Z,75299.19
2022-09-15T12:56:08.531Z,75327.00
2022-09-15T12:58:47.317Z,75311.13
2022-09-15T13:01:23.086Z,75332.97
2022-09-15T13:03:49.648Z,75327.00
2022-09-15T13:06:21.242Z,75315.09
2022-09-15T13:08:54.744Z,75299.19
2022-09-15T13:11:21.192Z,75313.09
2022-09-15T13:13:59.828Z,75329.00
2022-09-15T13:16:44.540Z,75340.91
2022-09-15T13:19:46.709Z,75330.97
2022-09-15T13:22:36.826Z,75352.84
2022-09-15T13:25:10.840Z,75392.56
2022-09-15T13:27:49.748Z,75376.69
2022-09-15T13:30:25.499Z,75342.91
2022-09-15T13:35:02.348Z,75323.03
2022-09-15T13:40:05.803Z,75263.44
2022-09-15T13:42:41.570Z,75251.53
2022-09-15T13:45:17.120Z,75271.38
2022-09-15T13:48:36.775Z,75259.47
2022-09-15T13:51:15.530Z,75247.56
2022-09-15T13:53:58.478Z,75265.44
2022-09-15T13:56:32.819Z,75313.09
2022-09-15T13:59:08.575Z,75315.09
2022-09-15T14:01:39.388Z,75325.03
2022-09-15T14:04:19.287Z,75338.94
2022-09-15T14:06:48.793Z,75317.06
2022-09-15T14:09:21.631Z,75323.03
2022-09-15T14:11:51.825Z,75340.91
2022-09-15T14:14:27.266Z,75362.75
2022-09-15T14:16:55.967Z,75374.69
2022-09-15T14:19:33.493Z,75382.63
2022-09-15T14:22:02.635Z,75390.56
2022-09-15T14:24:31.687Z,75394.56
2022-09-15T14:27:08.511Z,75374.69
2022-09-15T14:29:40.221Z,75368.72
2022-09-15T14:32:07.088Z,75348.88
2022-09-15T14:34:37.052Z,75348.88
2022-09-15T14:37:07.255Z,75336.94
2022-09-15T14:39:37.350Z,75344.88
2022-09-15T14:42:21.855Z,75319.06
2022-09-15T14:47:37.393Z,75291.25
2022-09-15T14:50:21.467Z,75305.16
2022-09-15T14:52:58.195Z,75319.06
2022-09-15T14:55:28.258Z,75295.22
2022-09-15T14:58:04.716Z,75352.84
2022-09-15T15:00:40.502Z,75354.81
2022-09-15T15:03:34.944Z,75358.78
2022-09-15T15:06:28.937Z,75273.38
2022-09-15T15:09:21.337Z,75116.44
2022-09-15T15:11:51.522Z,74985.34
2022-09-15T15:14:18.675Z,75076.72
2022-09-15T15:17:24.672Z,75154.19
2022-09-15T15:19:58.391Z,74941.66
2022-09-15T15:22:25.320Z,74812.56
2022-09-15T15:24:53.296Z,74733.13
2022-09-15T15:27:40.519Z,74570.25
2022-09-15T15:30:34.441Z,74429.25
2022-09-15T15:33:02.174Z,74339.88
2022-09-15T15:35:30.817Z,74427.25
2022-09-15T15:38:25.444Z,74564.28
2022-09-15T15:41:01.040Z,74715.25
2022-09-15T15:43:28.879Z,74800.63
2022-09-15T15:46:01.307Z,75015.16
2022-09-15T15:48:32.843Z,75130.34
2022-09-15T15:51:09.322Z,75209.81
2022-09-15T15:53:35.877Z,75271.38
2022-09-15T15:56:02.540Z,75309.13
2022-09-15T15:58:29.008Z,75332.97
2022-09-15T16:00:56.850Z,75358.78
2022-09-15T16:03:24.788Z,75378.66
2022-09-15T16:06:00.143Z,75402.50
2022-09-15T16:08:26.567Z,75436.28
2022-09-15T16:10:56.780Z,75432.28
2022-09-15T16:13:24.730Z,75450.16
2022-09-15T16:15:56.875Z,75456.13
2022-09-15T16:18:24.129Z,75452.16
2022-09-15T16:20:50.859Z,75452.16
2022-09-15T16:23:19.762Z,75460.09
2022-09-15T16:25:54.793Z,75476.00
2022-09-15T16:28:21.582Z,75477.97
2022-09-15T16:30:48.213Z,75507.78
2022-09-15T16:33:16.216Z,75515.72
2022-09-15T16:36:03.699Z,75553.47
2022-09-15T16:38:30.276Z,75642.88
2022-09-15T16:40:56.852Z,75694.53
2022-09-15T16:43:23.376Z,75718.38
2022-09-15T16:45:51.172Z,75748.16
2022-09-15T16:48:17.955Z,75770.03
2022-09-15T16:51:01.712Z,75777.97
2022-09-15T16:53:32.676Z,75799.81
2022-09-15T16:55:59.205Z,75821.69
2022-09-15T16:58:25.719Z,75835.59
2022-09-15T17:00:52.883Z,75849.50
2022-09-15T17:03:22.767Z,75851.47
2022-09-15T17:05:53.995Z,75869.34
2022-09-15T17:08:24.094Z,75879.28
2022-09-15T17:10:50.876Z,75883.25
2022-09-15T17:13:22.256Z,75891.22
2022-09-15T17:15:50.967Z,75903.13
2022-09-15T17:18:17.499Z,75899.16
2022-09-15T17:20:44.874Z,75903.13
2022-09-15T17:23:23.512Z,75909.09
2022-09-15T17:25:52.931Z,75923.00
2022-09-15T17:28:22.377Z,75934.91
2022-09-15T17:30:50.926Z,75925.00
2022-09-15T17:33:19.198Z,75926.97
2022-09-15T17:35:46.652Z,75926.97
2022-09-15T17:38:13.776Z,75930.94
2022-09-15T17:40:40.270Z,75938.91
2022-09-15T17:43:14.143Z,75930.94
2022-09-15T17:45:40.838Z,75932.94
2022-09-15T17:48:07.771Z,75917.03
2022-09-15T17:50:35.073Z,75917.03
2022-09-15T17:53:01.612Z,75919.03
2022-09-15T17:55:31.001Z,75913.06
2022-09-15T17:57:59.955Z,75926.97
2022-09-15T18:00:30.367Z,75944.84
2022-09-15T18:02:59.694Z,75948.81
2022-09-15T18:05:34.792Z,75946.84
2022-09-15T18:08:05.064Z,75954.78
2022-09-15T18:10:33.365Z,75958.75
2022-09-15T18:13:00.258Z,75964.72
2022-09-15T18:15:29.261Z,75960.75
2022-09-15T18:17:59.548Z,75966.72
2022-09-15T18:20:28.372Z,75986.56
2022-09-15T18:22:55.663Z,76000.47
2022-09-15T18:25:29.795Z,76000.47
2022-09-15T18:27:58.087Z,76002.47
2022-09-15T18:30:26.956Z,76018.38
2022-09-15T18:32:53.692Z,76036.25
2022-09-15T18:35:21.464Z,76046.19
2022-09-15T18:37:49.804Z,76044.19
2022-09-15T18:40:18.467Z,76054.13
2022-09-15T18:42:45.692Z,76066.06
2022-09-15T18:45:15.429Z,76068.03
2022-09-15T18:47:42.763Z,76076.00
2022-09-15T18:50:13.013Z,76085.91
2022-09-15T18:52:41.052Z,76087.91
2022-09-15T18:55:11.357Z,76101.81
2022-09-15T18:57:39.520Z,76103.81
2022-09-15T19:00:13.690Z,76107.78
2022-09-15T19:02:40.620Z,76119.69
2022-09-15T19:05:11.004Z,76111.75
2022-09-15T19:07:38.943Z,76097.84
2022-09-15T19:10:06.805Z,76099.81
2022-09-15T19:12:35.100Z,76107.78
2022-09-15T19:15:01.664Z,76113.75
2022-09-15T19:17:28.144Z,76117.72
2022-09-15T19:19:55.255Z,76125.66
2022-09-15T19:22:21.786Z,76127.66
2022-09-15T19:24:48.292Z,76129.63
2022-09-15T19:27:14.953Z,76131.63
2022-09-15T19:29:41.662Z,76131.63
2022-09-15T19:32:11.890Z,76125.66
2022-09-15T19:34:41.864Z,76121.69
2022-09-15T19:37:12.269Z,76111.75
2022-09-15T19:39:42.915Z,76109.75
2022-09-15T19:42:11.147Z,76111.75
2022-09-15T19:44:38.046Z,76113.75
2022-09-15T19:47:04.664Z,76117.72
2022-09-15T19:49:31.145Z,76105.78
2022-09-15T19:51:57.703Z,76097.84
2022-09-15T19:54:26.859Z,76087.91
2022-09-15T19:56:53.354Z,76079.97
2022-09-15T19:59:20.365Z,76083.94
2022-09-15T20:01:47.499Z,76089.91
2022-09-15T20:06:59.005Z,76093.88
2022-09-15T20:09:26.225Z,76081.94
2022-09-15T20:11:52.770Z,76079.97
2022-09-15T20:14:19.338Z,76077.97
2022-09-15T20:16:45.840Z,76089.91
2022-09-15T20:19:12.401Z,76070.03
2022-09-15T20:21:55.563Z,76077.97
2022-09-15T20:24:23.645Z,76062.06
2022-09-15T20:26:50.266Z,76056.13
2022-09-15T20:29:16.829Z,76070.03
2022-09-15T20:31:43.567Z,76064.06
2022-09-15T20:34:10.070Z,76064.06
2022-09-15T20:36:38.852Z,76074.00
2022-09-15T20:39:10.454Z,76083.94
2022-09-15T20:41:37.180Z,76079.97
2022-09-15T20:44:05.232Z,76079.97
2022-09-15T20:46:31.728Z,76077.97
2022-09-15T20:48:58.280Z,76085.91
2022-09-15T20:51:27.928Z,76083.94
2022-09-15T20:53:56.119Z,76089.91
2022-09-15T20:56:25.586Z,76076.00
2022-09-15T20:58:53.580Z,76085.91
2022-09-15T21:01:25.561Z,76085.91
2022-09-15T21:03:53.376Z,76077.97
2022-09-15T21:06:22.214Z,76081.94
2022-09-15T21:08:49.742Z,76085.91
2022-09-15T21:11:17.755Z,76097.84
2022-09-15T21:13:44.646Z,76101.81
2022-09-15T21:16:16.950Z,76109.75
2022-09-15T21:18:44.596Z,76113.75
2022-09-15T21:21:17.255Z,76131.63
2022-09-15T21:23:49.359Z,76137.59
2022-09-15T21:26:27.582Z,76149.50
2022-09-15T21:28:56.074Z,76145.53
2022-09-15T21:31:27.904Z,76141.56
2022-09-15T21:33:55.107Z,76127.66
2022-09-15T21:36:24.616Z,76129.63
2022-09-15T21:38:52.848Z,76133.59
2022-09-15T21:41:22.007Z,76137.59
2022-09-15T21:43:49.538Z,76133.59
2022-09-15T21:46:18.444Z,76129.63
2022-09-15T21:48:47.687Z,76133.59
2022-09-15T21:51:24.545Z,76135.59
2022-09-15T21:53:54.123Z,76135.59
2022-09-15T21:56:21.626Z,76113.75
2022-09-15T21:58:48.829Z,76123.66
2022-09-15T22:01:19.787Z,76113.75
2022-09-15T22:03:51.485Z,76121.69
2022-09-15T22:06:19.907Z,76131.63
2022-09-15T22:08:46.845Z,76137.59
2022-09-15T22:11:13.538Z,76125.66
2022-09-15T22:13:42.853Z,76115.72
2022-09-15T22:16:15.928Z,76127.66
2022-09-15T22:18:43.508Z,76125.66
2022-09-15T22:21:15.745Z,76127.66
2022-09-15T22:23:44.272Z,76139.56
2022-09-15T22:26:16.657Z,76129.63
2022-09-15T22:28:43.347Z,76119.69
2022-09-15T22:31:12.244Z,76133.59
2022-09-15T22:33:41.044Z,76131.63
2022-09-15T22:36:12.221Z,76141.56
2022-09-15T22:38:38.882Z,76145.53
2022-09-15T22:41:09.158Z,76141.56
2022-09-15T22:43:36.870Z,76157.44
2022-09-15T22:46:04.358Z,76167.38
2022-09-15T22:48:31.374Z,76171.34
2022-09-15T22:50:58.448Z,76173.34
2022-09-15T22:53:25.446Z,76183.28
2022-09-15T22:55:53.163Z,76183.28
2022-09-15T22:58:19.953Z,76187.25
2022-09-15T23:00:46.585Z,76179.31
2022-09-15T23:03:13.060Z,76189.25
2022-09-15T23:05:39.657Z,76181.28
2022-09-15T23:08:06.132Z,76167.38
2022-09-15T23:10:32.745Z,76179.31
2022-09-15T23:12:59.849Z,76185.25
2022-09-15T23:15:26.508Z,76185.25
2022-09-15T23:17:52.958Z,76177.31
2022-09-15T23:20:19.410Z,76171.34
2022-09-15T23:22:45.921Z,76171.34
2022-09-15T23:25:12.978Z,76169.38
2022-09-15T23:27:39.600Z,76165.41
2022-09-15T23:30:06.480Z,76167.38
2022-09-15T23:32:32.929Z,76157.44
2022-09-15T23:34:59.417Z,76161.44
2022-09-15T23:37:26.035Z,76161.44
2022-09-15T23:39:52.563Z,76175.34
2022-09-15T23:42:19.232Z,76183.28
2022-09-15T23:44:46.167Z,76185.25
2022-09-15T23:47:12.673Z,76195.19
2022-09-15T23:49:39.268Z,76195.19
2022-09-15T23:52:05.792Z,76215.06
2022-09-15T23:54:32.360Z,76232.94
2022-09-15T23:56:58.889Z,76234.94
2022-09-15T23:59:25.456Z,76236.94
